Time;durP1;ratioP1;P1;durP2;ratioP2;P2;SDS_P1;SDS_P2;PMS_P1;PMS_P2;Temp;Humidity;BMP_temperature;BMP_pressure;BME280_temperature;BME280_humidity;BME280_pressure;Samples;Min_cycle;Max_cycle;Signal;HPM_P1;HPM_P2
2023/07/18 00:01:59;;;;;;;16.00;11.93;;;;;;;;;;5047214;28;20370;-60
2023/07/18 00:04:25;;;;;;;12.95;10.90;;;;;;;;;;5023924;28;20292;-60
2023/07/18 00:06:50;;;;;;;16.02;11.88;;;;;;;;;;5047244;28;20053;-60
2023/07/18 00:09:16;;;;;;;13.85;11.05;;;;;;;;;;5046686;28;20142;-59
2023/07/18 00:11:42;;;;;;;15.05;11.52;;;;;;;;;;5031697;28;20152;-60
2023/07/18 00:14:07;;;;;;;14.88;11.68;;;;;;;;;;5033329;28;20048;-60
2023/07/18 00:16:32;;;;;;;14.23;12.23;;;;;;;;;;5047479;28;20040;-59
2023/07/18 00:18:59;;;;;;;14.13;11.20;;;;;;;;;;5055023;28;20419;-59
2023/07/18 00:21:24;;;;;;;14.15;11.73;;;;;;;;;;5030263;28;20423;-60
2023/07/18 00:23:50;;;;;;;13.00;11.25;;;;;;;;;;5052123;28;20040;-59
2023/07/18 00:26:16;;;;;;;14.55;11.25;;;;;;;;;;5054621;28;20033;-59
2023/07/18 00:28:41;;;;;;;15.50;11.50;;;;;;;;;;5042804;28;20056;-59
2023/07/18 00:31:06;;;;;;;12.52;11.10;;;;;;;;;;5035675;28;20044;-58
2023/07/18 00:33:31;;;;;;;14.10;12.00;;;;;;;;;;5046203;28;20048;-59
2023/07/18 00:35:57;;;;;;;12.47;11.17;;;;;;;;;;5030999;28;20637;-58
2023/07/18 00:38:22;;;;;;;12.67;11.13;;;;;;;;;;5026725;28;20664;-61
2023/07/18 00:40:50;;;;;;;14.65;12.43;;;;;;;;;;5032533;28;20284;-59
2023/07/18 00:43:15;;;;;;;14.57;12.15;;;;;;;;;;5027299;28;20111;-58
2023/07/18 00:45:41;;;;;;;13.30;11.55;;;;;;;;;;5043780;28;20509;-58
2023/07/18 00:48:07;;;;;;;14.63;12.27;;;;;;;;;;5046209;28;20071;-59
2023/07/18 00:50:32;;;;;;;14.18;12.00;;;;;;;;;;5028394;28;20022;-61
2023/07/18 00:52:58;;;;;;;14.20;11.45;;;;;;;;;;5041853;28;20120;-60
2023/07/18 00:55:23;;;;;;;14.18;11.05;;;;;;;;;;5045506;28;20357;-61
2023/07/18 00:57:48;;;;;;;12.97;11.57;;;;;;;;;;5044000;28;20497;-59
2023/07/18 01:00:14;;;;;;;15.00;11.00;;;;;;;;;;5011294;28;20723;-59
2023/07/18 01:02:40;;;;;;;13.52;12.13;;;;;;;;;;5032684;28;20291;-61
2023/07/18 01:05:06;;;;;;;15.82;11.35;;;;;;;;;;5046062;28;20037;-61
2023/07/18 01:07:32;;;;;;;15.40;12.43;;;;;;;;;;5054294;28;20763;-60
2023/07/18 01:10:16;;;;;;;15.38;11.70;;;;;;;;;;5052798;28;20045;-61
2023/07/18 01:12:41;;;;;;;13.38;11.00;;;;;;;;;;5042739;28;20094;-60
2023/07/18 01:15:06;;;;;;;14.10;12.07;;;;;;;;;;5045878;28;20036;-61
2023/07/18 01:17:32;;;;;;;15.93;11.80;;;;;;;;;;5033832;28;20290;-61
2023/07/18 01:19:57;;;;;;;13.03;11.27;;;;;;;;;;5046492;28;20032;-61
2023/07/18 01:22:22;;;;;;;13.07;11.35;;;;;;;;;;5027330;28;20037;-58
2023/07/18 01:24:48;;;;;;;15.60;11.37;;;;;;;;;;5018974;28;20029;-59
2023/07/18 01:27:13;;;;;;;13.83;11.43;;;;;;;;;;5034818;28;20836;-58
2023/07/18 01:29:39;;;;;;;13.63;11.80;;;;;;;;;;5026467;28;20486;-60
2023/07/18 01:32:04;;;;;;;14.75;11.73;;;;;;;;;;5031004;28;20028;-60
2023/07/18 01:34:29;;;;;;;12.93;11.23;;;;;;;;;;5008301;28;20083;-61
2023/07/18 01:36:55;;;;;;;14.50;11.60;;;;;;;;;;5032778;28;20511;-60
2023/07/18 01:39:20;;;;;;;14.63;11.90;;;;;;;;;;5046239;28;20534;-61
2023/07/18 01:41:45;;;;;;;15.90;12.20;;;;;;;;;;5029575;28;20288;-60
2023/07/18 01:44:10;;;;;;;14.07;11.95;;;;;;;;;;5045677;28;20142;-60
2023/07/18 01:46:36;;;;;;;13.43;10.90;;;;;;;;;;5046101;28;20438;-61
2023/07/18 01:49:01;;;;;;;14.43;11.57;;;;;;;;;;5045874;28;20332;-60
2023/07/18 01:51:26;;;;;;;14.95;11.57;;;;;;;;;;5043257;28;20291;-60
2023/07/18 01:53:51;;;;;;;13.70;11.63;;;;;;;;;;5044832;28;20033;-61
2023/07/18 01:56:16;;;;;;;14.17;11.63;;;;;;;;;;5045704;28;20303;-61
2023/07/18 01:58:43;;;;;;;13.60;11.80;;;;;;;;;;5031955;28;20033;-61
2023/07/18 02:01:09;;;;;;;13.98;11.50;;;;;;;;;;5040949;28;20290;-60
2023/07/18 02:03:35;;;;;;;13.68;12.15;;;;;;;;;;5025721;28;20084;-61
2023/07/18 02:06:01;;;;;;;14.35;12.15;;;;;;;;;;5014987;28;20029;-60
2023/07/18 02:08:26;;;;;;;13.27;11.73;;;;;;;;;;5046046;28;20052;-60
2023/07/18 02:10:51;;;;;;;14.63;12.33;;;;;;;;;;5025062;28;20083;-61
2023/07/18 02:13:17;;;;;;;14.73;11.60;;;;;;;;;;5041928;28;20835;-60
2023/07/18 02:15:42;;;;;;;17.58;11.95;;;;;;;;;;5033830;28;20272;-60
2023/07/18 02:18:07;;;;;;;13.80;11.82;;;;;;;;;;5039713;28;20029;-61
2023/07/18 02:20:32;;;;;;;13.93;11.98;;;;;;;;;;5044922;28;20032;-60
2023/07/18 02:23:00;;;;;;;14.03;11.80;;;;;;;;;;5029200;28;20041;-60
2023/07/18 02:25:26;;;;;;;16.77;12.15;;;;;;;;;;5043554;28;20382;-60
2023/07/18 02:27:51;;;;;;;13.80;12.18;;;;;;;;;;5049021;28;20135;-60
2023/07/18 02:30:16;;;;;;;14.97;12.67;;;;;;;;;;5048652;28;20478;-61
2023/07/18 02:32:42;;;;;;;14.45;12.57;;;;;;;;;;5040862;28;20059;-60
2023/07/18 02:35:08;;;;;;;18.17;12.95;;;;;;;;;;5047948;28;20426;-60
2023/07/18 02:37:33;;;;;;;16.67;12.48;;;;;;;;;;5040574;28;20036;-60
2023/07/18 02:39:58;;;;;;;15.35;12.80;;;;;;;;;;5042462;28;20033;-61
2023/07/18 02:42:23;;;;;;;14.83;12.83;;;;;;;;;;5037211;28;20518;-60
2023/07/18 02:44:49;;;;;;;16.67;12.83;;;;;;;;;;5037610;28;20735;-60
2023/07/18 02:47:14;;;;;;;15.15;12.93;;;;;;;;;;5048635;28;20310;-60
2023/07/18 02:49:39;;;;;;;14.43;12.80;;;;;;;;;;5039187;28;20511;-61
2023/07/18 02:52:05;;;;;;;15.27;12.65;;;;;;;;;;5034783;28;20707;-60
2023/07/18 02:54:30;;;;;;;15.25;12.75;;;;;;;;;;5034653;28;20572;-60
2023/07/18 02:56:56;;;;;;;14.63;12.27;;;;;;;;;;5047833;28;20871;-60
2023/07/18 02:59:22;;;;;;;15.75;12.73;;;;;;;;;;5048100;28;20311;-60
2023/07/18 03:01:49;;;;;;;14.80;13.05;;;;;;;;;;5027094;28;20037;-60
2023/07/18 03:04:15;;;;;;;16.75;13.07;;;;;;;;;;5046332;28;20060;-60
2023/07/18 03:06:40;;;;;;;17.10;12.93;;;;;;;;;;5050367;28;20060;-60
2023/07/18 03:09:05;;;;;;;15.10;12.87;;;;;;;;;;5037571;28;20076;-61
2023/07/18 03:11:31;;;;;;;15.95;13.05;;;;;;;;;;5029325;28;20721;-60
2023/07/18 03:13:56;;;;;;;16.25;13.52;;;;;;;;;;5047643;28;20086;-60
2023/07/18 03:16:21;;;;;;;15.75;13.73;;;;;;;;;;5047897;28;20053;-60
2023/07/18 03:18:47;;;;;;;17.20;12.80;;;;;;;;;;5013423;28;20120;-58
2023/07/18 03:21:12;;;;;;;16.90;13.10;;;;;;;;;;5027681;28;20789;-58
2023/07/18 03:23:37;;;;;;;15.63;12.73;;;;;;;;;;5034818;28;20291;-58
2023/07/18 03:26:02;;;;;;;15.93;13.03;;;;;;;;;;5047544;28;20378;-58
2023/07/18 03:28:28;;;;;;;15.53;12.50;;;;;;;;;;5033883;28;20300;-58
2023/07/18 03:30:53;;;;;;;13.88;12.27;;;;;;;;;;5025924;28;20301;-58
2023/07/18 03:33:18;;;;;;;15.87;13.20;;;;;;;;;;5044148;28;20040;-58
2023/07/18 03:35:43;;;;;;;15.43;12.53;;;;;;;;;;5046508;28;20275;-58
2023/07/18 03:38:09;;;;;;;15.07;12.40;;;;;;;;;;5043509;28;20307;-58
2023/07/18 03:40:34;;;;;;;14.93;13.07;;;;;;;;;;5036043;28;20721;-60
2023/07/18 03:43:00;;;;;;;14.60;12.85;;;;;;;;;;5038138;28;20037;-58
2023/07/18 03:45:26;;;;;;;15.60;12.77;;;;;;;;;;5047088;28;20025;-58
2023/07/18 03:47:51;;;;;;;17.30;13.73;;;;;;;;;;5037685;28;20037;-59
2023/07/18 03:50:16;;;;;;;16.08;12.70;;;;;;;;;;5051704;28;20843;-59
2023/07/18 03:52:42;;;;;;;15.35;12.82;;;;;;;;;;5053843;28;20037;-59
2023/07/18 03:55:07;;;;;;;14.90;12.27;;;;;;;;;;5038918;28;20479;-59
2023/07/18 03:57:33;;;;;;;16.20;13.68;;;;;;;;;;5042951;28;20034;-59
2023/07/18 03:59:58;;;;;;;17.23;13.70;;;;;;;;;;5029918;28;20102;-59
2023/07/18 04:02:23;;;;;;;15.38;13.10;;;;;;;;;;5035142;28;20150;-59
2023/07/18 04:04:49;;;;;;;15.85;13.27;;;;;;;;;;5027703;28;20033;-59
2023/07/18 04:07:14;;;;;;;18.92;14.10;;;;;;;;;;5046269;28;20983;-59
2023/07/18 04:09:39;;;;;;;15.83;13.13;;;;;;;;;;5056456;28;20040;-59
2023/07/18 04:12:05;;;;;;;15.97;14.23;;;;;;;;;;5045560;28;20795;-59
2023/07/18 04:14:31;;;;;;;16.40;14.65;;;;;;;;;;5029600;28;20327;-59
2023/07/18 04:16:56;;;;;;;18.30;15.10;;;;;;;;;;5046257;28;20029;-59
2023/07/18 04:19:21;;;;;;;16.50;13.87;;;;;;;;;;5042926;28;20291;-59
2023/07/18 04:21:46;;;;;;;16.07;13.83;;;;;;;;;;5046983;28;20766;-59
2023/07/18 04:24:12;;;;;;;18.67;14.27;;;;;;;;;;5038944;28;20291;-59
2023/07/18 04:26:37;;;;;;;18.70;14.40;;;;;;;;;;5042037;28;20288;-59
2023/07/18 04:29:05;;;;;;;20.13;15.00;;;;;;;;;;5043366;28;20309;-59
2023/07/18 04:31:30;;;;;;;18.58;14.55;;;;;;;;;;5043616;28;20290;-59
2023/07/18 04:33:56;;;;;;;18.03;14.67;;;;;;;;;;5044544;28;20017;-59
2023/07/18 04:36:21;;;;;;;20.40;14.90;;;;;;;;;;5044977;28;20859;-58
2023/07/18 04:38:46;;;;;;;18.17;14.50;;;;;;;;;;5043146;28;20275;-59
2023/07/18 04:41:11;;;;;;;16.20;14.43;;;;;;;;;;5037765;28;20267;-59
2023/07/18 04:43:37;;;;;;;19.67;15.20;;;;;;;;;;5042697;28;20645;-59
2023/07/18 04:46:03;;;;;;;17.60;14.13;;;;;;;;;;5047679;28;20421;-59
2023/07/18 04:48:29;;;;;;;16.85;14.95;;;;;;;;;;5043976;28;20431;-60
2023/07/18 04:50:58;;;;;;;19.98;14.82;;;;;;;;;;5040933;28;20025;-59
2023/07/18 04:53:25;;;;;;;17.58;14.27;;;;;;;;;;5037311;28;20025;-57
2023/07/18 04:55:50;;;;;;;18.60;14.32;;;;;;;;;;5021444;28;20082;-60
2023/07/18 04:58:16;;;;;;;17.27;15.23;;;;;;;;;;5039536;28;20038;-60
2023/07/18 05:00:41;;;;;;;18.60;14.87;;;;;;;;;;5039402;28;20040;-60
2023/07/18 05:03:06;;;;;;;17.77;15.43;;;;;;;;;;5036128;28;20357;-60
2023/07/18 05:05:32;;;;;;;18.27;15.57;;;;;;;;;;5036775;28;20025;-60
2023/07/18 05:08:00;;;;;;;20.23;15.27;;;;;;;;;;5035674;28;20291;-61
2023/07/18 05:10:26;;;;;;;19.50;15.40;;;;;;;;;;5037608;28;20097;-60
2023/07/18 05:12:54;;;;;;;20.83;15.13;;;;;;;;;;5033501;28;20458;-59
2023/07/18 05:15:19;;;;;;;18.15;14.88;;;;;;;;;;5036115;28;20121;-59
2023/07/18 05:17:45;;;;;;;19.08;14.57;;;;;;;;;;5038227;28;20296;-60
2023/07/18 05:20:10;;;;;;;20.13;15.77;;;;;;;;;;5038456;28;20531;-59
2023/07/18 05:22:37;;;;;;;20.73;15.45;;;;;;;;;;5036141;28;20033;-59
2023/07/18 05:25:04;;;;;;;16.00;13.57;;;;;;;;;;5035792;28;20071;-59
2023/07/18 05:27:29;;;;;;;15.65;13.05;;;;;;;;;;5035368;28;20615;-60
2023/07/18 05:29:55;;;;;;;14.97;13.03;;;;;;;;;;5036983;28;20036;-60
2023/07/18 05:32:21;;;;;;;19.73;13.75;;;;;;;;;;5034586;28;21041;-61
2023/07/18 05:34:46;;;;;;;17.52;13.45;;;;;;;;;;5019115;28;20056;-60
2023/07/18 05:37:11;;;;;;;16.73;12.97;;;;;;;;;;5037743;28;20517;-60
2023/07/18 05:39:36;;;;;;;16.93;13.30;;;;;;;;;;5036272;28;20471;-61
2023/07/18 05:42:02;;;;;;;16.77;13.00;;;;;;;;;;5034051;28;20287;-60
2023/07/18 05:44:27;;;;;;;17.85;13.40;;;;;;;;;;5018803;28;20283;-61
2023/07/18 05:46:52;;;;;;;16.37;13.07;;;;;;;;;;5036805;28;20411;-62
2023/07/18 05:49:20;;;;;;;15.90;13.03;;;;;;;;;;5037239;28;20299;-66
2023/07/18 05:51:45;;;;;;;20.23;13.20;;;;;;;;;;5036610;28;20307;-59
2023/07/18 05:54:11;;;;;;;16.90;13.37;;;;;;;;;;5035611;28;20514;-59
2023/07/18 05:56:36;;;;;;;18.63;13.53;;;;;;;;;;5036298;28;20381;-59
2023/07/18 05:59:05;;;;;;;16.40;13.75;;;;;;;;;;5036241;28;20383;-59
2023/07/18 06:01:30;;;;;;;17.98;14.43;;;;;;;;;;5034241;28;20107;-59
2023/07/18 06:03:56;;;;;;;18.23;13.67;;;;;;;;;;5036739;28;20029;-60
2023/07/18 06:06:22;;;;;;;17.75;14.13;;;;;;;;;;5035879;28;20650;-59
2023/07/18 06:08:47;;;;;;;16.63;13.05;;;;;;;;;;5036970;28;20513;-58
2023/07/18 06:11:12;;;;;;;16.98;12.95;;;;;;;;;;5033477;28;20771;-59
2023/07/18 06:13:37;;;;;;;15.32;12.55;;;;;;;;;;5034206;28;20120;-60
2023/07/18 06:16:04;;;;;;;15.30;12.55;;;;;;;;;;5036230;28;20037;-59
2023/07/18 06:18:30;;;;;;;17.70;12.88;;;;;;;;;;5032236;28;20114;-61
2023/07/18 06:20:55;;;;;;;17.20;12.40;;;;;;;;;;5035600;28;20036;-66
2023/07/18 06:23:20;;;;;;;16.70;12.43;;;;;;;;;;5034231;28;20648;-67
2023/07/18 06:25:46;;;;;;;16.00;12.85;;;;;;;;;;5033509;28;20041;-65
2023/07/18 06:28:11;;;;;;;14.97;12.57;;;;;;;;;;5035531;28;20122;-59
2023/07/18 06:30:37;;;;;;;16.83;13.13;;;;;;;;;;5036426;28;20801;-62
2023/07/18 06:33:02;;;;;;;16.55;12.27;;;;;;;;;;5033361;28;20722;-65
2023/07/18 06:35:27;;;;;;;18.05;12.70;;;;;;;;;;5034441;28;20045;-64
2023/07/18 06:37:53;;;;;;;15.65;13.38;;;;;;;;;;5036243;28;20025;-68
2023/07/18 06:40:18;;;;;;;16.55;12.80;;;;;;;;;;5036101;28;20037;-64
2023/07/18 06:42:43;;;;;;;16.75;13.13;;;;;;;;;;5036969;28;20040;-68
2023/07/18 06:45:09;;;;;;;18.13;14.57;;;;;;;;;;5016813;28;20037;-59
2023/07/18 06:47:34;;;;;;;15.98;12.77;;;;;;;;;;5031997;28;20041;-59
2023/07/18 06:49:59;;;;;;;14.48;12.00;;;;;;;;;;5043763;28;20036;-63
2023/07/18 06:52:26;;;;;;;13.20;11.27;;;;;;;;;;5042246;28;20069;-59
2023/07/18 06:54:51;;;;;;;12.55;11.27;;;;;;;;;;5038199;28;20124;-61
2023/07/18 06:57:16;;;;;;;16.23;11.30;;;;;;;;;;5036938;28;20488;-57
2023/07/18 06:59:42;;;;;;;13.13;11.02;;;;;;;;;;5035247;28;20055;-59
2023/07/18 07:02:10;;;;;;;12.93;11.27;;;;;;;;;;5037009;28;20039;-61
2023/07/18 07:04:36;;;;;;;12.93;10.73;;;;;;;;;;5033368;28;20056;-61
2023/07/18 07:07:02;;;;;;;12.10;10.80;;;;;;;;;;5034510;28;20033;-59
2023/07/18 07:09:27;;;;;;;12.77;10.48;;;;;;;;;;5020129;28;20047;-61
2023/07/18 07:11:52;;;;;;;12.35;11.05;;;;;;;;;;5039683;28;20025;-59
2023/07/18 07:14:17;;;;;;;12.07;10.47;;;;;;;;;;5037898;28;20021;-61
2023/07/18 07:16:43;;;;;;;12.70;10.70;;;;;;;;;;5037449;28;20061;-58
2023/07/18 07:19:08;;;;;;;12.83;10.70;;;;;;;;;;5039133;28;20036;-61
2023/07/18 07:21:33;;;;;;;13.13;10.67;;;;;;;;;;5038618;28;20025;-58
2023/07/18 07:23:59;;;;;;;11.52;10.32;;;;;;;;;;5040410;28;20292;-60
2023/07/18 07:26:24;;;;;;;11.13;10.02;;;;;;;;;;5038993;28;20569;-57
2023/07/18 07:28:50;;;;;;;11.95;10.52;;;;;;;;;;5038522;28;20040;-58
2023/07/18 07:31:15;;;;;;;12.07;10.77;;;;;;;;;;5040218;28;20503;-58
2023/07/18 07:33:41;;;;;;;11.38;10.18;;;;;;;;;;5037409;28;20403;-61
2023/07/18 07:36:06;;;;;;;12.18;10.70;;;;;;;;;;5038882;28;20101;-58
2023/07/18 07:38:32;;;;;;;13.98;11.98;;;;;;;;;;5040066;28;20037;-59
2023/07/18 07:40:57;;;;;;;11.93;9.95;;;;;;;;;;5037600;28;20116;-60
2023/07/18 07:43:22;;;;;;;11.13;9.55;;;;;;;;;;5038957;28;20503;-59
2023/07/18 07:45:48;;;;;;;10.88;9.77;;;;;;;;;;5039349;28;20646;-61
2023/07/18 07:48:13;;;;;;;11.65;9.50;;;;;;;;;;5038766;28;20086;-61
2023/07/18 07:50:39;;;;;;;10.65;9.48;;;;;;;;;;5034604;28;22269;-61
2023/07/18 07:53:04;;;;;;;11.05;9.85;;;;;;;;;;5038562;28;20517;-58
2023/07/18 07:55:30;;;;;;;10.50;9.45;;;;;;;;;;5036856;28;20116;-57
2023/07/18 07:57:55;;;;;;;9.68;8.70;;;;;;;;;;5040520;28;20715;-56
2023/07/18 08:00:21;;;;;;;10.93;9.27;;;;;;;;;;5028076;28;20566;-59
2023/07/18 08:02:46;;;;;;;11.20;8.80;;;;;;;;;;5037080;28;20298;-59
2023/07/18 08:05:12;;;;;;;11.30;9.27;;;;;;;;;;5035296;28;20045;-57
2023/07/18 08:07:39;;;;;;;9.23;8.23;;;;;;;;;;5042902;28;20057;-60
2023/07/18 08:10:05;;;;;;;10.43;8.88;;;;;;;;;;5043236;28;20039;-59
2023/07/18 08:12:30;;;;;;;9.40;8.40;;;;;;;;;;5045189;28;20033;-56
2023/07/18 08:14:55;;;;;;;9.60;8.60;;;;;;;;;;5038568;28;20051;-58
2023/07/18 08:17:20;;;;;;;11.80;8.70;;;;;;;;;;5036550;28;20288;-58
2023/07/18 08:19:46;;;;;;;10.98;8.90;;;;;;;;;;5020618;28;20799;-58
2023/07/18 08:22:11;;;;;;;10.40;8.68;;;;;;;;;;5034537;28;20106;-59
2023/07/18 08:24:36;;;;;;;9.93;8.03;;;;;;;;;;5033113;28;20137;-58
2023/07/18 08:27:01;;;;;;;9.52;8.30;;;;;;;;;;5043450;28;20296;-58
2023/07/18 08:29:27;;;;;;;9.05;8.15;;;;;;;;;;5044413;28;20041;-60
2023/07/18 08:31:53;;;;;;;9.45;8.20;;;;;;;;;;5046912;28;20033;-59
2023/07/18 08:34:19;;;;;;;8.57;7.70;;;;;;;;;;5036551;28;20507;-60
2023/07/18 08:36:46;;;;;;;9.30;8.27;;;;;;;;;;5040038;28;20044;-58
2023/07/18 08:39:11;;;;;;;8.63;7.72;;;;;;;;;;5028813;28;20065;-60
2023/07/18 08:41:36;;;;;;;9.00;8.00;;;;;;;;;;5040846;28;20065;-58
2023/07/18 08:44:02;;;;;;;8.97;8.07;;;;;;;;;;5040969;28;20044;-58
2023/07/18 08:46:27;;;;;;;9.07;8.07;;;;;;;;;;5041856;28;20033;-63
2023/07/18 08:48:52;;;;;;;9.17;8.13;;;;;;;;;;5041886;28;20045;-59
2023/07/18 08:51:17;;;;;;;9.05;7.93;;;;;;;;;;5062032;28;20098;-60
2023/07/18 08:53:43;;;;;;;10.53;8.47;;;;;;;;;;5060958;28;20124;-58
2023/07/18 08:56:08;;;;;;;9.35;8.45;;;;;;;;;;5040984;28;20043;-59
2023/07/18 08:58:36;;;;;;;10.30;7.93;;;;;;;;;;5045347;28;20044;-60
2023/07/18 09:01:01;;;;;;;8.50;7.47;;;;;;;;;;5046102;28;20036;-59
2023/07/18 09:03:26;;;;;;;8.47;7.67;;;;;;;;;;5045157;28;20044;-59
2023/07/18 09:05:52;;;;;;;8.75;7.85;;;;;;;;;;5031649;28;20041;-60
2023/07/18 09:08:18;;;;;;;8.75;7.82;;;;;;;;;;5046037;28;20053;-59
2023/07/18 09:10:45;;;;;;;8.65;7.50;;;;;;;;;;5043373;28;20128;-59
2023/07/18 09:13:11;;;;;;;9.05;7.65;;;;;;;;;;5044964;28;20051;-59
2023/07/18 09:15:37;;;;;;;10.50;7.32;;;;;;;;;;5042059;28;20029;-60
2023/07/18 09:18:03;;;;;;;9.00;7.95;;;;;;;;;;5026103;28;20041;-59
2023/07/18 09:20:29;;;;;;;8.20;7.35;;;;;;;;;;5025742;28;20064;-59
2023/07/18 09:22:58;;;;;;;8.38;7.53;;;;;;;;;;5007682;28;20029;-58
2023/07/18 09:25:24;;;;;;;8.87;7.60;;;;;;;;;;5025872;28;20596;-58
2023/07/18 09:27:50;;;;;;;8.30;7.45;;;;;;;;;;5045772;28;20040;-58
2023/07/18 09:30:19;;;;;;;8.88;7.68;;;;;;;;;;5045261;28;20430;-58
2023/07/18 09:32:45;;;;;;;8.43;7.37;;;;;;;;;;5044484;28;20117;-58
2023/07/18 09:35:11;;;;;;;8.27;7.18;;;;;;;;;;5027441;28;20382;-58
2023/07/18 09:37:43;;;;;;;8.02;7.15;;;;;;;;;;5027283;28;20521;-58
2023/07/18 09:40:08;;;;;;;8.15;7.28;;;;;;;;;;5032853;28;20044;-58
2023/07/18 09:42:33;;;;;;;8.82;7.25;;;;;;;;;;5007712;28;20479;-59
2023/07/18 09:44:59;;;;;;;8.30;7.23;;;;;;;;;;5018462;28;20083;-58
2023/07/18 09:47:24;;;;;;;7.83;7.03;;;;;;;;;;5024851;28;20295;-59
2023/07/18 09:49:49;;;;;;;8.03;6.90;;;;;;;;;;5027438;28;20056;-59
2023/07/18 09:52:14;;;;;;;7.70;6.27;;;;;;;;;;5027186;28;20657;-58
2023/07/18 09:54:40;;;;;;;7.22;6.47;;;;;;;;;;5044746;28;20073;-58
2023/07/18 09:57:09;;;;;;;7.75;6.95;;;;;;;;;;5026982;28;20033;-59
2023/07/18 09:59:37;;;;;;;7.50;6.70;;;;;;;;;;5045239;28;20479;-59
2023/07/18 10:02:05;;;;;;;7.20;6.47;;;;;;;;;;5044527;28;20099;-58
2023/07/18 10:04:32;;;;;;;7.78;6.47;;;;;;;;;;5038735;28;20060;-58
2023/07/18 10:06:57;;;;;;;7.90;6.97;;;;;;;;;;5019036;28;20124;-59
2023/07/18 10:09:23;;;;;;;7.90;6.73;;;;;;;;;;5014318;28;20598;-59
2023/07/18 10:11:57;;;;;;;7.63;6.65;;;;;;;;;;5032100;28;20305;-59
2023/07/18 10:14:22;;;;;;;7.78;6.78;;;;;;;;;;5058681;28;20452;-58
2023/07/18 10:16:52;;;;;;;7.82;6.95;;;;;;;;;;5041887;28;20809;-59
2023/07/18 10:19:22;;;;;;;;;;;;;;;;;;5041440;28;20033;-59
2023/07/18 10:21:48;;;;;;;8.90;7.25;;;;;;;;;;5031563;28;19916;-58
2023/07/18 10:24:23;;;;;;;7.75;6.95;;;;;;;;;;5046516;28;20100;-59
2023/07/18 10:26:51;;;;;;;7.38;6.25;;;;;;;;;;5040761;28;20116;-60
2023/07/18 10:29:16;;;;;;;7.38;6.57;;;;;;;;;;5028759;28;20038;-58
2023/07/18 10:31:41;;;;;;;8.10;7.17;;;;;;;;;;5035721;28;20028;-59
2023/07/18 10:34:10;;;;;;;7.78;6.75;;;;;;;;;;5042207;28;20283;-59
2023/07/18 10:36:36;;;;;;;7.67;6.60;;;;;;;;;;5032891;28;20024;-60
2023/07/18 10:39:12;;;;;;;7.25;6.38;;;;;;;;;;5043022;28;20025;-60
2023/07/18 10:41:41;;;;;;;7.75;6.40;;;;;;;;;;5037065;28;20092;-58
2023/07/18 10:44:09;;;;;;;7.05;6.35;;;;;;;;;;5047133;28;20743;-61
2023/07/18 10:46:35;;;;;;;7.20;6.45;;;;;;;;;;5034550;28;20457;-61
2023/07/18 10:49:00;;;;;;;7.72;6.47;;;;;;;;;;5028936;28;20042;-62
2023/07/18 10:51:25;;;;;;;7.32;6.38;;;;;;;;;;5054879;28;20025;-61
2023/07/18 10:53:53;;;;;;;7.30;6.43;;;;;;;;;;5049161;28;20124;-61
2023/07/18 10:56:20;;;;;;;7.13;6.25;;;;;;;;;;5029519;28;20626;-63
2023/07/18 10:58:45;;;;;;;7.70;6.38;;;;;;;;;;5049098;28;20060;-62
2023/07/18 11:01:10;;;;;;;7.00;6.27;;;;;;;;;;5042874;28;20053;-58
2023/07/18 11:03:37;;;;;;;7.75;6.07;;;;;;;;;;5051903;28;20024;-61
2023/07/18 11:06:06;;;;;;;7.10;6.20;;;;;;;;;;5049193;28;20801;-60
2023/07/18 11:08:32;;;;;;;7.87;6.17;;;;;;;;;;5020397;28;20107;-58
2023/07/18 11:10:59;;;;;;;6.65;5.93;;;;;;;;;;5041276;28;20674;-61
2023/07/18 11:13:28;;;;;;;6.78;5.63;;;;;;;;;;5047180;28;20021;-58
2023/07/18 11:15:55;;;;;;;6.97;6.05;;;;;;;;;;5044964;28;20060;-60
2023/07/18 11:18:20;;;;;;;6.80;6.10;;;;;;;;;;5046342;28;20041;-59
2023/07/18 11:20:46;;;;;;;6.63;5.93;;;;;;;;;;5044202;28;20077;-58
2023/07/18 11:23:11;;;;;;;6.13;5.50;;;;;;;;;;5047584;28;20109;-59
2023/07/18 11:25:36;;;;;;;5.63;5.03;;;;;;;;;;5028923;28;20280;-60
2023/07/18 11:28:03;;;;;;;6.17;5.50;;;;;;;;;;5044552;28;20303;-61
2023/07/18 11:30:28;;;;;;;6.53;5.78;;;;;;;;;;5044753;28;20280;-60
2023/07/18 11:32:53;;;;;;;6.93;5.80;;;;;;;;;;5028543;28;20079;-59
2023/07/18 11:35:20;;;;;;;6.90;5.73;;;;;;;;;;5045520;28;20056;-58
2023/07/18 11:37:48;;;;;;;6.35;5.22;;;;;;;;;;5045976;28;20381;-59
2023/07/18 11:40:25;;;;;;;6.50;5.80;;;;;;;;;;5045050;28;20162;-59
2023/07/18 11:42:51;;;;;;;5.95;5.30;;;;;;;;;;5046235;28;20036;-59
2023/07/18 11:45:23;;;;;;;6.55;5.30;;;;;;;;;;5046406;28;20033;-58
2023/07/18 11:47:52;;;;;;;5.90;5.30;;;;;;;;;;5045484;28;20127;-59
2023/07/18 11:50:17;;;;;;;5.53;5.03;;;;;;;;;;5045952;28;20116;-58
2023/07/18 11:52:45;;;;;;;6.30;5.13;;;;;;;;;;5047260;28;20108;-58
2023/07/18 11:55:10;;;;;;;6.00;5.30;;;;;;;;;;5040769;28;20044;-61
2023/07/18 11:57:35;;;;;;;6.55;5.75;;;;;;;;;;5035761;28;20132;-59
2023/07/18 12:00:00;;;;;;;5.68;5.07;;;;;;;;;;5048060;28;20035;-58
2023/07/18 12:02:26;;;;;;;6.07;5.17;;;;;;;;;;5046690;28;20101;-58
2023/07/18 12:04:52;;;;;;;5.28;4.78;;;;;;;;;;5044430;28;20295;-59
2023/07/18 12:07:18;;;;;;;5.80;5.00;;;;;;;;;;5045479;28;20589;-60
2023/07/18 12:09:43;;;;;;;5.82;4.93;;;;;;;;;;5045788;28;20094;-61
2023/07/18 12:12:08;;;;;;;6.13;5.10;;;;;;;;;;5042216;28;20025;-60
2023/07/18 12:14:35;;;;;;;6.15;5.05;;;;;;;;;;5063359;28;20327;-61
2023/07/18 12:17:00;;;;;;;5.60;5.00;;;;;;;;;;5047541;28;20441;-59
2023/07/18 12:19:25;;;;;;;5.25;4.72;;;;;;;;;;5028284;28;20505;-59
2023/07/18 12:21:51;;;;;;;5.63;5.00;;;;;;;;;;5040628;28;20612;-57
2023/07/18 12:24:18;;;;;;;5.88;4.88;;;;;;;;;;5045510;28;20543;-58
2023/07/18 12:26:44;;;;;;;5.45;4.82;;;;;;;;;;5042854;28;20048;-58
2023/07/18 12:29:10;;;;;;;6.35;5.13;;;;;;;;;;5043109;28;20041;-59
2023/07/18 12:31:36;;;;;;;5.28;4.72;;;;;;;;;;5029062;28;20033;-59
2023/07/18 12:34:01;;;;;;;5.95;4.97;;;;;;;;;;5027416;28;20041;-59
2023/07/18 12:36:27;;;;;;;5.50;4.90;;;;;;;;;;5044527;28;20426;-59
2023/07/18 12:38:52;;;;;;;5.37;4.57;;;;;;;;;;5040521;28;20055;-58
2023/07/18 12:41:17;;;;;;;5.23;4.70;;;;;;;;;;5043528;28;20649;-61
2023/07/18 12:43:42;;;;;;;5.27;4.30;;;;;;;;;;5047147;28;20359;-60
2023/07/18 12:46:08;;;;;;;5.25;4.57;;;;;;;;;;5045642;28;20288;-61
2023/07/18 12:48:33;;;;;;;5.78;4.68;;;;;;;;;;5043692;28;20052;-59
2023/07/18 12:50:59;;;;;;;4.77;4.17;;;;;;;;;;5022635;28;20029;-61
2023/07/18 12:53:24;;;;;;;5.03;4.28;;;;;;;;;;5048842;28;20771;-60
2023/07/18 12:55:49;;;;;;;5.63;4.47;;;;;;;;;;5036446;28;20667;-61
2023/07/18 12:58:14;;;;;;;5.10;4.38;;;;;;;;;;5043226;28;20033;-61
2023/07/18 13:00:40;;;;;;;5.45;4.50;;;;;;;;;;5046014;28;20033;-61
2023/07/18 13:03:05;;;;;;;5.35;4.60;;;;;;;;;;5028823;28;20071;-58
2023/07/18 13:05:31;;;;;;;5.53;4.70;;;;;;;;;;5044966;28;20200;-59
2023/07/18 13:07:56;;;;;;;4.57;3.97;;;;;;;;;;5049108;28;20037;-59
2023/07/18 13:10:22;;;;;;;5.17;4.50;;;;;;;;;;5046563;28;20368;-58
2023/07/18 13:12:47;;;;;;;4.80;4.30;;;;;;;;;;5048088;28;20298;-62
2023/07/18 13:15:12;;;;;;;5.17;4.23;;;;;;;;;;5052437;28;20040;-59
2023/07/18 13:17:38;;;;;;;6.20;4.70;;;;;;;;;;5046177;28;20374;-61
2023/07/18 13:20:03;;;;;;;4.90;4.40;;;;;;;;;;5035066;28;20749;-62
2023/07/18 13:22:28;;;;;;;4.70;4.13;;;;;;;;;;5036991;28;20289;-59
2023/07/18 13:24:54;;;;;;;5.03;4.37;;;;;;;;;;5045615;28;20112;-60
2023/07/18 13:27:19;;;;;;;4.87;4.10;;;;;;;;;;5044230;28;20041;-60
2023/07/18 13:29:44;;;;;;;5.57;4.40;;;;;;;;;;5040036;28;20304;-60
2023/07/18 13:32:09;;;;;;;4.60;4.10;;;;;;;;;;5044461;28;20441;-59
2023/07/18 13:34:35;;;;;;;5.45;4.30;;;;;;;;;;5044684;28;20299;-60
2023/07/18 13:37:00;;;;;;;5.22;4.20;;;;;;;;;;5043889;28;20152;-61
2023/07/18 13:39:25;;;;;;;4.50;4.10;;;;;;;;;;5036931;28;20107;-58
2023/07/18 13:41:51;;;;;;;4.60;3.85;;;;;;;;;;5045259;28;20864;-59
2023/07/18 13:44:16;;;;;;;4.83;4.00;;;;;;;;;;5047184;28;20040;-58
2023/07/18 13:46:41;;;;;;;4.30;3.90;;;;;;;;;;5043531;28;20345;-61
2023/07/18 13:49:06;;;;;;;5.50;4.50;;;;;;;;;;5036605;28;20304;-59
2023/07/18 13:51:32;;;;;;;4.83;3.90;;;;;;;;;;5044392;28;20677;-57
2023/07/18 13:53:57;;;;;;;5.05;4.20;;;;;;;;;;5042940;28;20303;-59
2023/07/18 13:56:23;;;;;;;4.50;3.60;;;;;;;;;;5054856;23;20429;-77
2023/07/18 13:58:49;;;;;;;4.35;3.80;;;;;;;;;;5016062;28;20078;-78
2023/07/18 14:01:14;;;;;;;4.97;3.90;;;;;;;;;;5015472;28;20175;-78
2023/07/18 14:03:39;;;;;;;5.00;3.40;;;;;;;;;;5009959;28;20116;-78
2023/07/18 14:06:05;;;;;;;4.47;3.88;;;;;;;;;;5025966;28;20768;-78
2023/07/18 14:08:30;;;;;;;4.55;4.10;;;;;;;;;;5024086;28;20514;-78
2023/07/18 14:10:55;;;;;;;4.25;3.58;;;;;;;;;;5025569;28;20048;-78
2023/07/18 14:13:21;;;;;;;4.67;3.97;;;;;;;;;;5028056;28;20041;-77
2023/07/18 14:15:46;;;;;;;4.23;3.30;;;;;;;;;;5024916;28;20300;-78
2023/07/18 14:18:11;;;;;;;4.23;3.53;;;;;;;;;;5026849;28;20318;-78
2023/07/18 14:20:41;;;;;;;4.47;3.65;;;;;;;;;;5042698;28;20295;-78